createdAt,value
2022-12-23T00:01:09.967Z,31.20
2022-12-23T00:03:39.578Z,25.30
2022-12-23T00:06:12.769Z,27.47
2022-12-23T00:08:41.678Z,26.27
2022-12-23T00:11:14.423Z,27.10
2022-12-23T00:14:00.244Z,28.63
2022-12-23T00:16:28.896Z,28.07
2022-12-23T00:18:57.754Z,29.77
2022-12-23T00:21:27.787Z,26.97
2022-12-23T00:23:56.381Z,32.30
2022-12-23T00:26:27.334Z,29.73
2022-12-23T00:28:57.968Z,28.73
2022-12-23T00:31:27.094Z,31.10
2022-12-23T00:33:55.813Z,28.90
2022-12-23T00:36:28.437Z,29.60
2022-12-23T00:39:14.816Z,30.37
2022-12-23T00:42:00.697Z,32.53
2022-12-23T00:44:29.384Z,30.33
2022-12-23T00:46:57.931Z,29.90
2022-12-23T00:49:43.875Z,33.87
2022-12-23T00:52:16.724Z,30.63
2022-12-23T00:54:45.408Z,30.20
2022-12-23T00:57:13.947Z,29.93
2022-12-23T00:59:42.620Z,28.53
2022-12-23T01:02:30.051Z,29.73
2022-12-23T01:05:16.373Z,34.33
2022-12-23T01:07:46.365Z,33.10
2022-12-23T01:10:14.910Z,32.83
2022-12-23T01:12:43.608Z,33.03
2022-12-23T01:15:12.748Z,33.53
2022-12-23T01:17:41.322Z,33.70
2022-12-23T01:20:10.844Z,36.60
2022-12-23T01:22:39.427Z,33.53
2022-12-23T01:25:10.951Z,39.33
2022-12-23T01:27:39.518Z,34.50
2022-12-23T01:30:09.313Z,37.87
2022-12-23T01:32:38.019Z,37.27
2022-12-23T01:35:07.282Z,36.90
2022-12-23T01:37:35.958Z,35.20
2022-12-23T01:40:05.089Z,39.30
2022-12-23T01:42:47.891Z,36.27
2022-12-23T01:45:18.195Z,34.27
2022-12-23T01:47:51.703Z,37.13
2022-12-23T01:50:25.102Z,37.43
2022-12-23T01:53:04.823Z,40.37
2022-12-23T01:55:40.181Z,43.93
2022-12-23T01:58:13.872Z,40.70
2022-12-23T02:01:01.344Z,35.63
2022-12-23T02:03:45.509Z,34.13
2022-12-23T02:06:37.981Z,34.23
2022-12-23T02:09:19.127Z,36.50
2022-12-23T02:12:30.316Z,37.03
2022-12-23T02:15:31.266Z,35.43
2022-12-23T02:18:12.290Z,34.10
2022-12-23T02:21:29.199Z,37.67
2022-12-23T02:24:49.339Z,36.10
2022-12-23T02:27:24.839Z,38.73
2022-12-23T02:33:21.035Z,36.30
2022-12-23T02:35:59.747Z,36.30
2022-12-23T02:38:33.740Z,37.37
2022-12-23T02:41:10.436Z,36.87
2022-12-23T02:43:45.854Z,39.90
2022-12-23T02:46:19.666Z,38.83
2022-12-23T02:48:55.185Z,37.57
2022-12-23T02:51:29.202Z,34.93
2022-12-23T02:54:02.055Z,36.07
2022-12-23T02:56:34.567Z,31.53
2022-12-23T02:59:06.843Z,36.67
2022-12-23T03:01:36.765Z,36.13
2022-12-23T03:04:07.153Z,33.57
2022-12-23T03:06:40.042Z,32.17
2022-12-23T03:09:09.684Z,30.80
2022-12-23T03:11:47.006Z,36.10
2022-12-23T03:14:32.416Z,32.47
2022-12-23T03:17:11.593Z,31.17
2022-12-23T03:19:50.843Z,32.67
2022-12-23T03:22:25.525Z,31.73
2022-12-23T03:25:02.538Z,34.20
2022-12-23T03:27:38.401Z,34.00
2022-12-23T03:30:09.549Z,32.90
2022-12-23T03:32:42.575Z,34.73
2022-12-23T03:35:17.536Z,29.17
2022-12-23T03:37:49.789Z,32.60
2022-12-23T03:40:21.469Z,32.77
2022-12-23T03:42:54.640Z,31.00
2022-12-23T03:45:38.793Z,31.23
2022-12-23T03:48:13.219Z,34.97
2022-12-23T03:50:44.658Z,35.33
2022-12-23T03:53:17.936Z,30.90
2022-12-23T03:55:51.139Z,32.20
2022-12-23T03:58:34.727Z,31.00
2022-12-23T04:01:18.483Z,32.73
2022-12-23T04:03:53.165Z,28.70
2022-12-23T04:06:25.553Z,28.87
2022-12-23T04:08:55.324Z,28.47
2022-12-23T04:11:24.104Z,29.40
2022-12-23T04:13:52.593Z,30.07
2022-12-23T04:16:21.302Z,29.93
2022-12-23T04:18:49.831Z,29.43
2022-12-23T04:21:18.415Z,28.77
2022-12-23T04:23:48.347Z,29.67
2022-12-23T04:26:17.066Z,27.07
2022-12-23T04:28:45.628Z,26.40
2022-12-23T04:31:14.251Z,27.17
2022-12-23T04:33:42.864Z,25.00
2022-12-23T04:36:11.502Z,28.80
2022-12-23T04:38:40.063Z,25.30
2022-12-23T04:41:10.179Z,28.93
2022-12-23T04:43:38.674Z,28.33
2022-12-23T04:46:07.237Z,26.53
2022-12-23T04:48:36.904Z,28.93
2022-12-23T04:51:06.681Z,30.07
2022-12-23T04:53:37.597Z,29.10
2022-12-23T04:56:06.540Z,33.20
2022-12-23T04:58:36.599Z,29.53
2022-12-23T05:01:06.785Z,35.83
2022-12-23T05:03:35.524Z,31.37
2022-12-23T05:06:04.726Z,33.30
2022-12-23T05:08:33.356Z,30.70
2022-12-23T05:11:01.954Z,35.23
2022-12-23T05:13:30.715Z,28.53
2022-12-23T05:16:00.758Z,28.63
2022-12-23T05:18:29.370Z,25.73
2022-12-23T05:20:57.938Z,26.13
2022-12-23T05:23:26.529Z,27.97
2022-12-23T05:25:56.011Z,27.03
2022-12-23T05:28:24.994Z,26.10
2022-12-23T05:31:01.535Z,30.93
2022-12-23T05:33:30.476Z,30.57
2022-12-23T05:35:59.270Z,30.37
2022-12-23T05:38:28.736Z,29.93
2022-12-23T05:40:57.333Z,27.37
2022-12-23T05:43:26.066Z,32.13
2022-12-23T05:45:54.686Z,31.57
2022-12-23T05:48:25.140Z,29.33
2022-12-23T05:50:54.631Z,31.37
2022-12-23T05:53:24.758Z,29.33
2022-12-23T05:55:53.332Z,28.40
2022-12-23T05:58:21.851Z,25.47
2022-12-23T06:00:50.595Z,27.43
2022-12-23T06:03:19.264Z,28.00
2022-12-23T06:05:53.221Z,27.23
2022-12-23T06:08:22.105Z,26.43
2022-12-23T06:10:50.749Z,23.57
2022-12-23T06:13:19.336Z,23.87
2022-12-23T06:15:48.672Z,24.70
2022-12-23T06:18:17.218Z,25.53
2022-12-23T06:20:48.226Z,29.70
2022-12-23T06:23:18.264Z,29.90
2022-12-23T06:25:46.847Z,31.90
2022-12-23T06:28:15.460Z,31.40
2022-12-23T06:30:44.040Z,28.60
2022-12-23T06:33:12.618Z,30.33
2022-12-23T06:35:41.168Z,29.87
2022-12-23T06:38:12.225Z,29.20
2022-12-23T06:40:42.549Z,41.75
2022-12-23T06:43:13.544Z,28.87
2022-12-23T06:45:42.801Z,34.15
2022-12-23T06:48:11.380Z,30.73
2022-12-23T06:50:40.013Z,31.97
2022-12-23T06:53:08.642Z,29.93
2022-12-23T06:55:39.521Z,30.90
2022-12-23T06:58:10.005Z,27.73
2022-12-23T07:00:38.635Z,28.60
2022-12-23T07:03:08.096Z,28.53
2022-12-23T07:05:37.908Z,27.10
2022-12-23T07:08:07.217Z,26.90
2022-12-23T07:10:36.143Z,28.30
2022-12-23T07:13:04.750Z,30.20
2022-12-23T07:15:34.811Z,28.17
2022-12-23T07:18:03.394Z,26.53
2022-12-23T07:20:32.240Z,25.33
2022-12-23T07:23:01.141Z,27.57
2022-12-23T07:25:29.931Z,26.20
2022-12-23T07:27:58.636Z,27.20
2022-12-23T07:30:27.422Z,27.93
2022-12-23T07:32:57.628Z,24.70
2022-12-23T07:35:26.227Z,24.03
2022-12-23T07:37:55.782Z,25.00
2022-12-23T07:40:24.557Z,24.53
2022-12-23T07:42:56.826Z,23.00
2022-12-23T07:45:26.620Z,23.90
2022-12-23T07:47:57.172Z,25.10
2022-12-23T07:50:26.757Z,23.00
2022-12-23T07:52:55.983Z,21.87
2022-12-23T07:55:24.772Z,22.33
2022-12-23T07:57:54.296Z,23.77
2022-12-23T08:00:23.573Z,22.13
2022-12-23T08:02:52.266Z,22.07
2022-12-23T08:05:22.623Z,21.63
2022-12-23T08:07:51.271Z,21.93
2022-12-23T08:10:20.129Z,22.80
2022-12-23T08:12:51.224Z,24.77
2022-12-23T08:15:20.030Z,26.27
2022-12-23T08:17:48.981Z,23.23
2022-12-23T08:20:17.982Z,25.20
2022-12-23T08:22:48.181Z,24.80
2022-12-23T08:25:17.030Z,22.33
2022-12-23T08:27:45.941Z,22.43
2022-12-23T08:30:15.296Z,22.93
2022-12-23T08:32:43.990Z,22.10
2022-12-23T08:35:12.843Z,22.80
2022-12-23T08:37:41.484Z,23.50
2022-12-23T08:40:12.800Z,22.90
2022-12-23T08:42:41.497Z,22.80
2022-12-23T08:45:11.126Z,24.03
2022-12-23T08:47:39.752Z,21.70
2022-12-23T08:50:09.434Z,22.90
2022-12-23T08:52:38.385Z,21.80
2022-12-23T08:55:07.448Z,21.40
2022-12-23T08:57:37.567Z,22.13
2022-12-23T09:00:07.010Z,22.23
2022-12-23T09:02:35.944Z,21.73
2022-12-23T09:05:05.052Z,21.03
2022-12-23T09:07:33.698Z,22.27
2022-12-23T09:10:02.597Z,20.47
2022-12-23T09:12:31.534Z,21.40
2022-12-23T09:15:03.102Z,22.70
2022-12-23T09:17:31.717Z,21.77
2022-12-23T09:20:00.436Z,22.10
2022-12-23T09:22:29.195Z,21.07
2022-12-23T09:25:04.606Z,22.97
2022-12-23T09:27:33.831Z,23.10
2022-12-23T09:30:03.867Z,21.70
2022-12-23T09:32:33.968Z,21.97
2022-12-23T09:35:02.762Z,23.97
2022-12-23T09:37:31.514Z,23.80
2022-12-23T09:40:00.151Z,24.10
2022-12-23T09:42:48.283Z,23.87
2022-12-23T09:45:40.672Z,24.50
2022-12-23T09:48:14.038Z,27.43
2022-12-23T09:50:43.567Z,26.33
2022-12-23T09:53:16.832Z,24.00
2022-12-23T09:55:50.654Z,24.33
2022-12-23T09:58:28.608Z,23.60
2022-12-23T10:01:12.425Z,24.43
2022-12-23T10:04:01.155Z,24.47
2022-12-23T10:06:38.914Z,26.10
2022-12-23T10:09:11.483Z,26.07
2022-12-23T10:11:44.280Z,26.93
2022-12-23T10:14:19.795Z,27.40
2022-12-23T10:16:53.457Z,25.63
2022-12-23T10:19:27.828Z,25.07
2022-12-23T10:22:02.930Z,25.80
2022-12-23T10:24:37.924Z,27.13
2022-12-23T10:27:13.446Z,29.80
2022-12-23T10:29:43.835Z,32.20
2022-12-23T10:32:23.881Z,26.93
2022-12-23T10:34:58.524Z,27.20
2022-12-23T10:37:36.076Z,25.70
2022-12-23T10:40:13.664Z,30.13
2022-12-23T10:42:47.767Z,26.53
2022-12-23T10:45:28.825Z,27.63
2022-12-23T10:48:13.909Z,27.73
2022-12-23T10:50:55.820Z,35.10
2022-12-23T10:53:36.683Z,31.07
2022-12-23T10:56:07.807Z,27.13
2022-12-23T10:58:42.119Z,30.60
2022-12-23T11:01:21.852Z,30.20
2022-12-23T11:04:03.822Z,29.10
2022-12-23T11:06:37.592Z,27.63
2022-12-23T11:09:07.983Z,31.20
2022-12-23T11:12:00.096Z,29.63
2022-12-23T11:14:34.598Z,28.47
2022-12-23T11:17:03.750Z,30.93
2022-12-23T11:19:42.327Z,26.73
2022-12-23T11:22:23.585Z,28.00
2022-12-23T11:24:52.607Z,30.10
2022-12-23T11:27:21.679Z,28.03
2022-12-23T11:29:52.992Z,27.30
2022-12-23T11:32:25.315Z,30.77
2022-12-23T11:34:57.332Z,31.73
2022-12-23T11:37:31.732Z,31.30
2022-12-23T11:40:00.527Z,31.43
2022-12-23T11:42:31.876Z,30.23
2022-12-23T11:45:01.795Z,32.10
2022-12-23T11:47:35.847Z,31.43
2022-12-23T11:50:28.835Z,38.10
2022-12-23T11:53:05.540Z,30.30
2022-12-23T11:55:34.415Z,27.00
2022-12-23T11:58:04.230Z,30.83
2022-12-23T12:00:40.398Z,29.50
2022-12-23T12:03:19.830Z,31.67
2022-12-23T12:05:53.033Z,30.90
2022-12-23T12:08:24.710Z,28.20
2022-12-23T12:10:55.193Z,28.73
2022-12-23T12:13:29.936Z,31.80
2022-12-23T12:16:14.209Z,35.43
2022-12-23T12:18:48.032Z,35.60
2022-12-23T12:21:25.168Z,34.93
2022-12-23T12:24:17.304Z,33.70
2022-12-23T12:26:47.307Z,33.10
2022-12-23T12:29:20.040Z,35.80
2022-12-23T12:31:51.813Z,33.50
2022-12-23T12:34:33.746Z,32.47
2022-12-23T12:37:09.189Z,31.57
2022-12-23T12:39:43.391Z,32.57
2022-12-23T12:42:16.595Z,33.47
2022-12-23T12:44:56.143Z,37.33
2022-12-23T12:47:53.355Z,35.70
2022-12-23T12:50:28.078Z,34.23
2022-12-23T12:53:02.428Z,33.00
2022-12-23T12:55:34.713Z,33.60
2022-12-23T12:58:04.033Z,32.07
2022-12-23T13:00:41.893Z,32.63
2022-12-23T13:03:31.824Z,33.97
2022-12-23T13:06:17.102Z,33.87
2022-12-23T13:09:01.145Z,35.00
2022-12-23T13:11:33.647Z,35.43
2022-12-23T13:14:14.051Z,40.60
2022-12-23T13:16:49.731Z,33.37
2022-12-23T13:19:27.588Z,35.70
2022-12-23T13:22:05.330Z,33.87
2022-12-23T13:24:44.041Z,37.37
2022-12-23T13:27:19.641Z,35.67
2022-12-23T13:29:58.979Z,36.93
2022-12-23T13:32:54.251Z,36.07
2022-12-23T13:35:38.508Z,35.50
2022-12-23T13:38:19.252Z,35.13
2022-12-23T13:41:00.601Z,34.50
2022-12-23T13:43:39.523Z,34.20
2022-12-23T13:46:14.726Z,35.53
2022-12-23T13:48:53.067Z,35.10
2022-12-23T13:51:31.275Z,33.73
2022-12-23T13:54:05.791Z,34.97
2022-12-23T13:56:43.672Z,36.27
2022-12-23T13:59:13.811Z,38.47
2022-12-23T14:01:47.974Z,39.53
2022-12-23T14:04:58.250Z,37.47
2022-12-23T14:07:39.700Z,38.87
2022-12-23T14:10:14.300Z,35.77
2022-12-23T14:12:44.954Z,34.67
2022-12-23T14:15:33.560Z,36.67
2022-12-23T14:18:15.887Z,37.03
2022-12-23T14:20:51.840Z,34.10
2022-12-23T14:23:38.145Z,37.17
2022-12-23T14:26:26.846Z,35.10
2022-12-23T14:29:32.631Z,34.10
2022-12-23T14:32:01.471Z,35.20
2022-12-23T14:34:33.434Z,33.53
2022-12-23T14:37:33.811Z,37.03
2022-12-23T14:40:50.628Z,35.47
2022-12-23T14:43:34.309Z,34.10
2022-12-23T14:46:06.697Z,32.50
2022-12-23T14:52:38.042Z,37.00
2022-12-23T14:55:46.201Z,37.13
2022-12-23T14:59:02.421Z,35.60
2022-12-23T15:01:38.350Z,33.50
2022-12-23T15:04:18.334Z,33.13
2022-12-23T15:06:49.521Z,32.73
2022-12-23T15:09:25.146Z,34.08
2022-12-23T15:11:54.956Z,37.67
2022-12-23T15:14:32.689Z,36.00
2022-12-23T15:17:28.477Z,37.63
2022-12-23T15:20:07.123Z,35.30
2022-12-23T15:22:35.775Z,32.47
2022-12-23T15:25:22.197Z,31.50
2022-12-23T15:28:00.871Z,33.77
2022-12-23T15:30:35.284Z,31.73
2022-12-23T15:33:35.162Z,34.63
2022-12-23T15:36:03.519Z,33.37
2022-12-23T15:38:39.083Z,34.17
2022-12-23T15:41:20.050Z,36.10
2022-12-23T15:43:51.749Z,39.43
2022-12-23T15:46:29.840Z,47.10
2022-12-23T15:49:04.502Z,44.13
2022-12-23T15:52:05.716Z,39.20
2022-12-23T15:54:32.389Z,43.23
2022-12-23T15:57:04.726Z,39.13
2022-12-23T15:59:38.289Z,48.97
2022-12-23T16:02:58.549Z,47.27
2022-12-23T16:05:12.847Z,46.27
2022-12-23T16:07:45.021Z,42.57
2022-12-23T16:10:21.066Z,40.10
2022-12-23T16:12:53.959Z,39.10
2022-12-23T16:15:30.867Z,37.13
2022-12-23T16:18:14.565Z,36.73
2022-12-23T16:20:49.117Z,37.80
2022-12-23T16:23:18.910Z,41.67
2022-12-23T16:25:50.859Z,49.70
2022-12-23T16:28:26.925Z,52.80
2022-12-23T16:31:00.815Z,50.30
2022-12-23T16:33:38.189Z,43.73
2022-12-23T16:36:21.417Z,33.73
2022-12-23T16:38:53.538Z,36.03
2022-12-23T16:41:27.539Z,41.23
2022-12-23T16:44:03.701Z,44.10
2022-12-23T16:46:44.055Z,41.50
2022-12-23T16:49:22.917Z,39.83
2022-12-23T16:52:00.415Z,35.83
2022-12-23T16:54:31.007Z,33.83
2022-12-23T16:57:06.471Z,35.97
2022-12-23T16:59:42.989Z,38.93
2022-12-23T17:02:25.398Z,37.97
2022-12-23T17:04:58.298Z,33.13
2022-12-23T17:07:38.697Z,32.30
2022-12-23T17:10:16.141Z,32.73
2022-12-23T17:12:52.220Z,33.60
2022-12-23T17:15:31.106Z,31.90
2022-12-23T17:18:07.620Z,31.80
2022-12-23T17:20:42.821Z,32.57
2022-12-23T17:23:31.819Z,31.30
2022-12-23T17:26:05.161Z,30.47
2022-12-23T17:28:43.436Z,30.83
2022-12-23T17:31:24.337Z,32.23
2022-12-23T17:34:01.868Z,35.63
2022-12-23T17:36:36.371Z,34.93
2022-12-23T17:39:08.913Z,33.00
2022-12-23T17:41:40.340Z,33.80
2022-12-23T17:44:16.064Z,33.87
2022-12-23T17:46:48.444Z,38.17
2022-12-23T17:49:21.872Z,41.33
2022-12-23T17:51:52.085Z,38.80
2022-12-23T17:54:26.265Z,37.07
2022-12-23T17:56:55.223Z,39.07
2022-12-23T17:59:25.583Z,40.37
2022-12-23T18:01:56.815Z,32.07
2022-12-23T18:04:28.843Z,27.20
2022-12-23T18:06:59.450Z,29.10
2022-12-23T18:09:29.948Z,23.93
2022-12-23T18:12:02.575Z,28.90
2022-12-23T18:14:32.790Z,33.23
2022-12-23T18:17:02.326Z,27.83
2022-12-23T18:19:32.756Z,29.33
2022-12-23T18:22:01.496Z,35.85
2022-12-23T18:24:33.806Z,29.80
2022-12-23T18:27:04.148Z,31.40
2022-12-23T18:29:34.889Z,32.33
2022-12-23T18:32:05.186Z,41.60
2022-12-23T18:34:34.916Z,38.63
2022-12-23T18:37:04.647Z,35.40
2022-12-23T18:39:36.920Z,36.50
2022-12-23T18:42:11.917Z,32.73
2022-12-23T18:44:42.975Z,30.27
2022-12-23T18:47:13.133Z,31.00
2022-12-23T18:49:42.723Z,30.77
2022-12-23T18:52:15.092Z,35.92
2022-12-23T18:54:48.554Z,31.17
2022-12-23T18:57:17.214Z,33.07
2022-12-23T18:59:47.971Z,31.33
2022-12-23T19:02:16.721Z,34.27
2022-12-23T19:04:48.429Z,37.83
2022-12-23T19:07:17.301Z,37.23
2022-12-23T19:09:48.009Z,37.63
2022-12-23T19:12:17.373Z,34.47
2022-12-23T19:14:46.109Z,33.77
2022-12-23T19:17:16.307Z,31.70
2022-12-23T19:19:46.850Z,30.30
2022-12-23T19:22:16.141Z,29.77
2022-12-23T19:25:04.734Z,28.93
2022-12-23T19:27:35.060Z,28.17
2022-12-23T19:30:04.185Z,30.60
2022-12-23T19:32:34.602Z,31.67
2022-12-23T19:35:03.280Z,32.73
2022-12-23T19:37:33.267Z,32.03
2022-12-23T19:40:03.871Z,32.90
2022-12-23T19:42:34.096Z,31.13
2022-12-23T19:45:03.912Z,31.20
2022-12-23T19:47:32.601Z,33.13
2022-12-23T19:50:01.891Z,31.73
2022-12-23T19:52:30.513Z,33.33
2022-12-23T19:54:59.351Z,32.77
2022-12-23T19:57:29.496Z,34.83
2022-12-23T19:59:58.202Z,35.33
2022-12-23T20:02:33.595Z,36.40
2022-12-23T20:05:02.381Z,35.23
2022-12-23T20:07:31.103Z,36.03
2022-12-23T20:09:59.892Z,33.03
2022-12-23T20:12:34.773Z,34.87
2022-12-23T20:15:05.209Z,38.63
2022-12-23T20:17:33.985Z,34.83
2022-12-23T20:20:02.955Z,35.03
2022-12-23T20:22:31.734Z,32.13
2022-12-23T20:25:00.276Z,33.40
2022-12-23T20:27:32.491Z,31.57
2022-12-23T20:30:01.224Z,33.00
2022-12-23T20:32:29.962Z,33.33
2022-12-23T20:34:58.839Z,34.00
2022-12-23T20:37:27.571Z,33.03
2022-12-23T20:39:59.184Z,34.90
2022-12-23T20:42:28.192Z,38.70
2022-12-23T20:44:58.295Z,39.73
2022-12-23T20:47:30.067Z,38.57
2022-12-23T20:50:01.554Z,37.60
2022-12-23T20:52:30.722Z,48.47
2022-12-23T20:55:01.826Z,53.83
2022-12-23T20:57:32.041Z,64.50
2022-12-23T21:00:02.768Z,69.47
2022-12-23T21:07:30.801Z,63.50
2022-12-23T21:10:09.896Z,56.00
2022-12-23T21:12:47.553Z,59.27
2022-12-23T21:15:46.610Z,57.23
2022-12-23T21:18:49.266Z,54.80
2022-12-23T21:21:18.667Z,54.10
2022-12-23T21:23:47.727Z,53.30
2022-12-23T21:26:18.418Z,52.60
2022-12-23T21:28:49.193Z,49.33
2022-12-23T21:31:20.948Z,43.13
2022-12-23T21:33:51.344Z,44.53
2022-12-23T21:36:25.600Z,43.57
2022-12-23T21:38:55.409Z,44.13
2022-12-23T21:41:27.752Z,46.37
2022-12-23T21:43:58.141Z,44.77
2022-12-23T21:46:30.195Z,49.30
2022-12-23T21:49:02.628Z,49.60
2022-12-23T21:51:45.418Z,53.97
2022-12-23T21:54:14.770Z,67.83
2022-12-23T21:56:54.129Z,67.37
2022-12-23T21:59:23.484Z,66.23
2022-12-23T22:01:54.545Z,60.90
2022-12-23T22:04:26.519Z,51.90
2022-12-23T22:06:58.902Z,48.37
2022-12-23T22:09:29.314Z,45.77
2022-12-23T22:12:04.353Z,46.97
2022-12-23T22:14:33.381Z,39.77
2022-12-23T22:17:06.099Z,42.17
2022-12-23T22:19:34.885Z,40.20
2022-12-23T22:22:07.848Z,49.07
2022-12-23T22:24:46.231Z,54.47
2022-12-23T22:27:18.676Z,59.10
2022-12-23T22:29:50.901Z,59.00
2022-12-23T22:32:25.034Z,52.53
2022-12-23T22:34:54.290Z,49.97
2022-12-23T22:37:22.925Z,46.20
2022-12-23T22:40:17.646Z,48.50
2022-12-23T22:43:20.247Z,47.53
2022-12-23T22:46:08.457Z,51.87
2022-12-23T22:48:45.638Z,63.93
2022-12-23T22:51:20.311Z,59.73
2022-12-23T22:54:26.491Z,60.03
2022-12-23T22:57:06.902Z,57.47
2022-12-23T22:59:38.868Z,54.97
2022-12-23T23:02:49.448Z,53.53
2022-12-23T23:05:28.755Z,55.87
2022-12-23T23:07:58.140Z,53.47
2022-12-23T23:10:37.517Z,52.93
2022-12-23T23:13:23.597Z,53.50
2022-12-23T23:16:02.923Z,48.67
2022-12-23T23:18:42.698Z,46.63
2022-12-23T23:21:19.718Z,52.77
2022-12-23T23:26:35.581Z,61.53
2022-12-23T23:29:04.835Z,52.97
2022-12-23T23:31:54.054Z,51.20
2022-12-23T23:34:23.312Z,65.13
2022-12-23T23:36:53.840Z,60.70
2022-12-23T23:39:23.515Z,53.73
2022-12-23T23:42:28.889Z,56.60
2022-12-23T23:45:07.914Z,51.73
2022-12-23T23:47:45.530Z,55.73
2022-12-23T23:50:22.223Z,57.33
2022-12-23T23:53:01.551Z,57.90
2022-12-23T23:55:36.091Z,59.80
2022-12-23T23:58:09.940Z,62.77
